Time;durP1;ratioP1;P1;durP2;ratioP2;P2;SDS_P1;SDS_P2;PMS_P1;PMS_P2;Temp;Humidity;BMP_temperature;BMP_pressure;BME280_temperature;BME280_humidity;BME280_pressure;Samples;Min_cycle;Max_cycle;Signal;HPM_P1;HPM_P2
2021/08/04 00:00:46;;;;;;;5.63;2.33;;;17.50;75.20;;;;;;5042358;28;20049;-78
2021/08/04 00:03:11;;;;;;;2.10;1.90;;;17.40;75.40;;;;;;5037764;28;20032;-78
2021/08/04 00:05:37;;;;;;;5.63;2.33;;;17.30;75.70;;;;;;5035991;28;20051;-78
2021/08/04 00:08:03;;;;;;;3.65;2.15;;;17.30;76.10;;;;;;5030657;28;20029;-78
2021/08/04 00:10:28;;;;;;;2.92;1.55;;;17.30;76.20;;;;;;5038970;28;20028;-78
2021/08/04 00:12:54;;;;;;;3.97;2.00;;;17.30;76.80;;;;;;5040175;28;20541;-79
2021/08/04 00:15:20;;;;;;;5.88;2.35;;;17.40;77.00;;;;;;5037836;28;20474;-78
2021/08/04 00:17:46;;;;;;;3.17;1.98;;;17.40;77.00;;;;;;5042921;28;20029;-78
2021/08/04 00:20:13;;;;;;;2.92;1.95;;;17.50;76.80;;;;;;5037921;28;20030;-78
2021/08/04 00:22:38;;;;;;;6.07;2.58;;;17.50;76.80;;;;;;5037145;28;20031;-78
2021/08/04 00:25:06;;;;;;;5.10;1.38;;;17.50;76.60;;;;;;5041443;28;20045;-78
2021/08/04 00:27:32;;;;;;;4.97;1.95;;;17.60;76.90;;;;;;5041168;28;20089;-78
2021/08/04 00:29:58;;;;;;;1.80;1.60;;;17.60;76.90;;;;;;5034613;28;20076;-79
2021/08/04 00:32:24;;;;;;;2.78;2.58;;;17.60;76.80;;;;;;5041700;28;20112;-79
2021/08/04 00:34:50;;;;;;;3.83;2.45;;;17.50;76.60;;;;;;5040992;28;20033;-78
2021/08/04 00:37:16;;;;;;;5.60;3.38;;;17.50;76.70;;;;;;5044199;28;20876;-78
2021/08/04 00:39:42;;;;;;;6.20;2.38;;;17.50;76.60;;;;;;5039470;28;20025;-79
2021/08/04 00:42:08;;;;;;;4.45;3.25;;;17.50;76.70;;;;;;5042356;28;20168;-78
2021/08/04 00:44:34;;;;;;;2.85;2.65;;;17.50;76.90;;;;;;5040805;28;20040;-78
2021/08/04 00:46:59;;;;;;;3.53;2.65;;;17.50;76.80;;;;;;5039848;28;20029;-78
2021/08/04 00:49:25;;;;;;;5.82;4.90;;;17.40;76.70;;;;;;5041433;28;20073;-78
2021/08/04 00:51:50;;;;;;;10.00;7.88;;;17.40;77.00;;;;;;5040914;28;20446;-78
2021/08/04 00:54:16;;;;;;;8.60;6.53;;;17.40;76.90;;;;;;5039140;28;20033;-78
2021/08/04 00:56:42;;;;;;;5.88;3.65;;;17.40;77.10;;;;;;5026130;28;20068;-78
2021/08/04 00:59:11;;;;;;;6.68;4.72;;;17.40;77.10;;;;;;5037810;28;20026;-78
2021/08/04 01:01:59;;;;;;;7.20;5.50;;;17.40;77.40;;;;;;5038563;28;20040;-78
2021/08/04 01:04:38;;;;;;;9.18;7.32;;;17.40;77.70;;;;;;5038329;28;20034;-77
2021/08/04 01:07:29;;;;;;;11.00;8.55;;;17.50;77.70;;;;;;5038794;28;20113;-78
2021/08/04 01:10:04;;;;;;;6.53;3.65;;;17.50;77.90;;;;;;5036094;28;20025;-78
2021/08/04 01:12:37;;;;;;;3.72;3.05;;;17.50;78.50;;;;;;5037368;28;20021;-78
2021/08/04 01:15:07;;;;;;;10.52;7.32;;;17.50;78.40;;;;;;5031355;28;20072;-78
2021/08/04 01:17:34;;;;;;;6.78;3.92;;;17.50;78.40;;;;;;5041228;28;20064;-79
2021/08/04 01:20:34;;;;;;;4.68;3.75;;;17.50;78.60;;;;;;5041518;28;20080;-78
2021/08/04 01:23:23;;;;;;;3.78;3.45;;;17.50;78.90;;;;;;5024601;28;20037;-79
2021/08/04 01:26:10;;;;;;;8.88;4.45;;;17.50;79.10;;;;;;5035135;28;20037;-78
2021/08/04 01:28:44;;;;;;;13.15;3.80;;;17.50;79.20;;;;;;5037134;28;20547;-78
2021/08/04 01:31:13;;;;;;;4.15;3.35;;;17.50;79.20;;;;;;5033240;28;20030;-78
2021/08/04 01:33:42;;;;;;;7.07;4.45;;;17.50;79.20;;;;;;5033651;28;20026;-78
2021/08/04 01:36:09;;;;;;;5.22;3.95;;;17.40;79.70;;;;;;5039861;28;20026;-79
2021/08/04 01:38:36;;;;;;;5.13;3.13;;;17.40;79.70;;;;;;5039932;28;20024;-79
2021/08/04 01:41:02;;;;;;;8.48;6.18;;;17.40;79.80;;;;;;5041448;28;20475;-78
2021/08/04 01:43:29;;;;;;;6.65;5.10;;;17.40;79.80;;;;;;5038759;28;20021;-78
2021/08/04 01:45:57;;;;;;;4.65;3.35;;;17.40;79.70;;;;;;5040829;28;20427;-78
2021/08/04 01:48:23;;;;;;;11.52;7.75;;;17.40;80.10;;;;;;5040275;28;20032;-79
2021/08/04 01:50:54;;;;;;;7.93;6.35;;;17.40;79.90;;;;;;5038437;28;20141;-78
2021/08/04 01:53:23;;;;;;;14.82;11.05;;;17.40;79.70;;;;;;5041250;28;20423;-78
2021/08/04 01:55:49;;;;;;;8.50;6.45;;;17.40;80.20;;;;;;5033292;28;20024;-78
2021/08/04 01:58:15;;;;;;;7.40;5.05;;;17.40;80.80;;;;;;5040640;28;20029;-79
2021/08/04 02:00:40;;;;;;;11.75;8.95;;;17.40;80.80;;;;;;5040109;28;20488;-78
2021/08/04 02:03:06;;;;;;;18.88;13.40;;;17.40;80.90;;;;;;5043086;28;20536;-79
2021/08/04 02:05:31;;;;;;;9.63;5.35;;;17.40;81.10;;;;;;5042790;28;20048;-79
2021/08/04 02:08:12;;;;;;;9.77;6.95;;;17.30;81.30;;;;;;5022313;28;20446;-79
2021/08/04 02:10:40;;;;;;;11.35;6.65;;;17.30;81.40;;;;;;5027781;28;20156;-78
2021/08/04 02:13:37;;;;;;;16.38;11.35;;;17.30;81.50;;;;;;5041072;28;20092;-79
2021/08/04 02:16:25;;;;;;;12.73;8.82;;;17.30;81.50;;;;;;5034538;28;20377;-79
2021/08/04 02:19:17;;;;;;;10.30;6.65;;;17.30;81.70;;;;;;5037903;28;20059;-78
2021/08/04 02:21:47;;;;;;;12.20;5.18;;;17.30;81.90;;;;;;5033222;28;20028;-79
2021/08/04 02:24:16;;;;;;;6.60;3.90;;;17.30;81.90;;;;;;5036130;28;20119;-78
2021/08/04 02:26:43;;;;;;;5.78;3.40;;;17.30;81.90;;;;;;5034100;28;20097;-78
2021/08/04 02:29:11;;;;;;;8.18;4.55;;;17.30;81.90;;;;;;5038261;28;20021;-79
2021/08/04 02:31:38;;;;;;;3.92;3.25;;;17.30;81.90;;;;;;5038413;28;20067;-78
2021/08/04 02:34:03;;;;;;;5.05;4.10;;;17.20;82.10;;;;;;5037083;28;20025;-79
2021/08/04 02:36:29;;;;;;;8.38;5.68;;;17.20;82.40;;;;;;5038558;28;20598;-78
2021/08/04 02:39:01;;;;;;;6.95;4.68;;;17.20;82.50;;;;;;5033292;28;20033;-78
2021/08/04 02:41:28;;;;;;;7.30;4.05;;;17.20;82.60;;;;;;5046388;28;20025;-78
2021/08/04 02:43:53;;;;;;;7.80;5.68;;;17.20;82.70;;;;;;5038802;28;20029;-78
2021/08/04 02:46:19;;;;;;;6.88;4.20;;;17.20;82.80;;;;;;5036506;28;20494;-78
2021/08/04 02:48:44;;;;;;;6.10;3.83;;;17.20;83.10;;;;;;5037723;28;20395;-79
2021/08/04 02:51:12;;;;;;;5.05;3.72;;;17.20;83.40;;;;;;5036916;28;20033;-79
2021/08/04 02:53:38;;;;;;;8.73;3.80;;;17.20;83.30;;;;;;5024413;28;20030;-78
2021/08/04 02:56:04;;;;;;;6.43;5.15;;;17.10;83.60;;;;;;5040795;28;20021;-78
2021/08/04 02:58:36;;;;;;;6.50;4.60;;;17.10;83.90;;;;;;5039317;28;20017;-78
2021/08/04 03:01:03;;;;;;;9.52;7.25;;;17.10;84.10;;;;;;5024444;28;20026;-78
2021/08/04 03:03:28;;;;;;;6.18;4.22;;;17.10;84.40;;;;;;5041325;28;20086;-79
2021/08/04 03:05:54;;;;;;;8.02;5.10;;;17.10;84.60;;;;;;5034155;28;20440;-79
2021/08/04 03:08:19;;;;;;;5.45;4.30;;;17.00;84.60;;;;;;5036904;28;20037;-79
2021/08/04 03:10:45;;;;;;;4.93;2.85;;;17.00;84.30;;;;;;5032904;28;20026;-78
2021/08/04 03:13:10;;;;;;;2.92;2.58;;;17.00;84.60;;;;;;5032153;28;20101;-79
2021/08/04 03:15:36;;;;;;;7.95;4.57;;;17.00;85.30;;;;;;5041399;28;20063;-78
2021/08/04 03:18:02;;;;;;;6.05;4.28;;;17.00;85.20;;;;;;5022769;28;20026;-79
2021/08/04 03:20:27;;;;;;;6.32;5.22;;;16.90;85.30;;;;;;5034305;28;20068;-79
2021/08/04 03:22:53;;;;;;;6.35;4.43;;;16.90;85.70;;;;;;5033887;28;20546;-78
2021/08/04 03:25:19;;;;;;;6.43;3.10;;;17.00;86.10;;;;;;5034075;28;20530;-79
2021/08/04 03:27:44;;;;;;;5.63;3.63;;;16.90;86.20;;;;;;5021093;28;20049;-79
2021/08/04 03:30:10;;;;;;;8.88;4.22;;;16.90;86.40;;;;;;5033826;28;20076;-79
2021/08/04 03:32:37;;;;;;;3.63;3.30;;;16.90;86.50;;;;;;5026316;28;20072;-79
2021/08/04 03:35:05;;;;;;;4.93;3.45;;;16.90;86.60;;;;;;5035833;28;20396;-79
2021/08/04 03:37:31;;;;;;;7.28;4.75;;;16.90;86.40;;;;;;5035759;28;20052;-79
2021/08/04 03:39:56;;;;;;;4.85;3.35;;;16.90;86.40;;;;;;5041577;28;20524;-79
2021/08/04 03:42:21;;;;;;;5.85;3.78;;;16.90;86.50;;;;;;5036236;28;20112;-79
2021/08/04 03:44:47;;;;;;;5.05;3.60;;;16.90;86.40;;;;;;5020898;28;20029;-79
2021/08/04 03:47:12;;;;;;;3.33;3.03;;;16.80;86.70;;;;;;5024258;28;20124;-78
2021/08/04 03:49:38;;;;;;;6.22;2.95;;;16.80;87.00;;;;;;5037752;28;20034;-79
2021/08/04 03:52:04;;;;;;;5.20;3.47;;;16.80;87.20;;;;;;5023958;28;20030;-79
2021/08/04 03:54:29;;;;;;;8.20;3.85;;;16.90;87.50;;;;;;5033478;28;20076;-79
2021/08/04 03:56:55;;;;;;;4.43;3.50;;;16.80;87.60;;;;;;5039493;28;20029;-79
2021/08/04 03:59:20;;;;;;;7.43;3.78;;;16.80;87.30;;;;;;5035379;28;20048;-79
2021/08/04 04:01:46;;;;;;;4.47;3.13;;;16.80;87.10;;;;;;5022702;28;20034;-79
2021/08/04 04:04:11;;;;;;;4.22;3.72;;;16.80;87.50;;;;;;5039558;28;20036;-79
2021/08/04 04:06:37;;;;;;;11.02;3.65;;;16.80;87.30;;;;;;5057695;23;20469;-74
2021/08/04 04:09:02;;;;;;;5.18;3.70;;;16.90;87.20;;;;;;5046910;28;20025;-74
2021/08/04 04:11:29;;;;;;;6.03;3.28;;;16.90;87.00;;;;;;5045720;28;20402;-74
2021/08/04 04:13:54;;;;;;;3.92;3.35;;;16.90;86.90;;;;;;5044418;28;20033;-74
2021/08/04 04:16:21;;;;;;;6.47;4.00;;;16.90;86.90;;;;;;5046438;28;20052;-74
2021/08/04 04:18:47;;;;;;;9.70;4.97;;;16.80;86.50;;;;;;5042133;28;20491;-74
2021/08/04 04:21:13;;;;;;;11.23;4.45;;;16.80;86.70;;;;;;5047263;28;20087;-74
2021/08/04 04:23:39;;;;;;;8.07;3.65;;;16.80;86.90;;;;;;5028223;28;20029;-74
2021/08/04 04:26:04;;;;;;;9.48;3.95;;;16.80;87.00;;;;;;5046300;28;20037;-74
2021/08/04 04:28:30;;;;;;;9.55;4.93;;;16.80;87.30;;;;;;5042561;28;20037;-74
2021/08/04 04:30:56;;;;;;;5.18;3.22;;;16.90;87.50;;;;;;5042494;28;20140;-74
2021/08/04 04:33:21;;;;;;;6.28;3.25;;;16.90;87.40;;;;;;5048401;28;20021;-74
2021/08/04 04:35:47;;;;;;;8.32;5.35;;;16.90;87.40;;;;;;5047506;28;20029;-74
2021/08/04 04:38:12;;;;;;;6.68;3.60;;;16.90;87.00;;;;;;5045684;28;20025;-74
2021/08/04 04:40:38;;;;;;;8.95;3.85;;;16.90;87.40;;;;;;5042001;28;20479;-74
2021/08/04 04:43:04;;;;;;;8.40;3.85;;;16.80;87.80;;;;;;5047862;28;20095;-74
2021/08/04 04:45:29;;;;;;;20.02;13.50;;;16.80;87.70;;;;;;5049274;28;20025;-74
2021/08/04 04:47:55;;;;;;;8.02;4.35;;;16.90;87.70;;;;;;5050619;28;20040;-73
2021/08/04 04:50:20;;;;;;;15.48;10.25;;;16.90;87.80;;;;;;5050497;28;20040;-72
2021/08/04 04:52:46;;;;;;;10.32;4.28;;;17.00;87.80;;;;;;5044986;28;20136;-72
2021/08/04 04:55:13;;;;;;;10.07;3.72;;;16.90;87.70;;;;;;5049181;28;20386;-73
2021/08/04 04:57:39;;;;;;;38.47;22.02;;;17.00;87.80;;;;;;5047621;28;20025;-73
2021/08/04 05:00:06;;;;;;;11.60;6.78;;;17.00;87.70;;;;;;5048636;28;20034;-73
2021/08/04 05:02:32;;;;;;;29.02;13.95;;;17.10;87.80;;;;;;5050324;28;20127;-73
2021/08/04 05:05:00;;;;;;;11.93;5.93;;;17.00;87.60;;;;;;5049312;28;20151;-72
2021/08/04 05:07:26;;;;;;;15.00;7.95;;;17.10;87.80;;;;;;5047139;28;20939;-73
2021/08/04 05:09:51;;;;;;;12.23;3.47;;;17.10;87.70;;;;;;5046831;28;20088;-73
2021/08/04 05:12:17;;;;;;;6.32;3.40;;;17.10;88.30;;;;;;5048747;28;20079;-72
2021/08/04 05:14:42;;;;;;;3.40;3.10;;;17.00;88.80;;;;;;5048795;28;20404;-72
2021/08/04 05:17:13;;;;;;;5.57;2.72;;;16.90;89.20;;;;;;5047949;28;20033;-72
2021/08/04 05:19:38;;;;;;;3.72;2.95;;;16.90;89.70;;;;;;5049927;28;20027;-72
2021/08/04 05:22:04;;;;;;;3.97;3.05;;;16.80;90.00;;;;;;5050654;28;20033;-72
2021/08/04 05:24:30;;;;;;;3.30;2.55;;;16.80;90.00;;;;;;5047347;28;20051;-72
2021/08/04 05:26:55;;;;;;;5.25;4.50;;;16.80;90.10;;;;;;5044479;28;20399;-73
2021/08/04 05:29:20;;;;;;;11.57;7.95;;;16.80;90.10;;;;;;5044329;28;20468;-74
2021/08/04 05:31:46;;;;;;;7.82;5.00;;;16.90;90.10;;;;;;5046585;28;20029;-74
2021/08/04 05:34:12;;;;;;;37.53;22.15;;;16.90;90.00;;;;;;5046941;28;20028;-74
2021/08/04 05:36:37;;;;;;;12.00;7.18;;;17.00;89.30;;;;;;5048929;28;20528;-74
2021/08/04 05:39:03;;;;;;;9.32;5.65;;;17.10;89.40;;;;;;5046630;28;20029;-74
2021/08/04 05:41:28;;;;;;;13.82;5.78;;;17.10;89.40;;;;;;5047623;28;20593;-74
2021/08/04 05:43:54;;;;;;;6.28;3.25;;;17.20;89.50;;;;;;5047771;28;20380;-73
2021/08/04 05:46:19;;;;;;;18.17;11.45;;;17.20;89.70;;;;;;5049255;28;20029;-74
2021/08/04 05:48:45;;;;;;;5.28;3.28;;;17.30;89.50;;;;;;5050041;28;20451;-73
2021/08/04 05:51:10;;;;;;;5.78;3.42;;;17.30;89.80;;;;;;5048116;28;20512;-74
2021/08/04 05:53:36;;;;;;;5.75;3.88;;;17.30;89.70;;;;;;5049297;28;20199;-74
2021/08/04 05:56:01;;;;;;;4.47;2.95;;;17.30;89.90;;;;;;5048240;28;20428;-74
2021/08/04 05:58:27;;;;;;;4.03;3.42;;;17.40;89.80;;;;;;5049161;28;20033;-74
2021/08/04 06:00:53;;;;;;;7.05;4.00;;;17.40;89.70;;;;;;5048656;28;20024;-74
2021/08/04 06:03:19;;;;;;;7.57;3.03;;;17.40;89.80;;;;;;5048444;28;20039;-73
2021/08/04 06:05:45;;;;;;;7.10;3.80;;;17.50;89.90;;;;;;5047690;28;20037;-74
2021/08/04 06:08:10;;;;;;;7.40;3.28;;;17.50;89.70;;;;;;5048212;28;20071;-74
2021/08/04 06:10:36;;;;;;;6.50;3.80;;;17.50;89.70;;;;;;5046386;28;20041;-74
2021/08/04 06:13:02;;;;;;;5.20;2.70;;;17.50;89.50;;;;;;5047371;28;20025;-74
2021/08/04 06:15:27;;;;;;;7.85;3.33;;;17.50;89.60;;;;;;5048067;28;20047;-73
2021/08/04 06:17:53;;;;;;;6.20;3.40;;;17.60;89.80;;;;;;5048434;28;20017;-74
2021/08/04 06:20:19;;;;;;;6.90;2.90;;;17.50;89.60;;;;;;5047936;28;20502;-74
2021/08/04 06:22:44;;;;;;;5.63;2.95;;;17.50;90.20;;;;;;5047994;28;20032;-74
2021/08/04 06:25:10;;;;;;;8.40;3.80;;;17.60;90.00;;;;;;5046137;28;20483;-74
2021/08/04 06:27:35;;;;;;;3.88;2.90;;;17.50;89.90;;;;;;5049446;28;20600;-73
2021/08/04 06:30:01;;;;;;;8.68;3.38;;;17.60;89.90;;;;;;5049479;28;20090;-74
2021/08/04 06:32:27;;;;;;;4.60;2.95;;;17.60;90.00;;;;;;5049093;28;20067;-73
2021/08/04 06:34:52;;;;;;;3.13;2.50;;;17.70;89.80;;;;;;5048791;28;20029;-74
2021/08/04 06:37:18;;;;;;;5.93;3.00;;;17.70;89.70;;;;;;5047896;28;20396;-73
2021/08/04 06:39:43;;;;;;;3.80;3.08;;;17.80;89.60;;;;;;5047642;28;20094;-74
2021/08/04 06:42:09;;;;;;;4.95;3.45;;;17.90;89.20;;;;;;5048089;28;20040;-74
2021/08/04 06:44:34;;;;;;;7.22;3.38;;;18.00;88.70;;;;;;5048407;28;20024;-74
2021/08/04 06:47:00;;;;;;;5.05;3.38;;;18.10;88.00;;;;;;5047772;28;20549;-74
2021/08/04 06:49:26;;;;;;;4.68;3.45;;;18.20;87.90;;;;;;5048954;28;20021;-74
2021/08/04 06:51:51;;;;;;;7.22;4.82;;;18.20;87.70;;;;;;5048098;28;20025;-74
2021/08/04 06:54:17;;;;;;;6.45;3.22;;;18.30;87.60;;;;;;5061998;28;20025;-73
2021/08/04 06:56:42;;;;;;;8.52;3.63;;;18.40;87.20;;;;;;5046328;28;20037;-74
2021/08/04 06:59:08;;;;;;;6.70;4.80;;;18.50;87.00;;;;;;5047596;28;20046;-74
2021/08/04 07:01:33;;;;;;;7.50;3.22;;;18.50;86.30;;;;;;5048579;28;20032;-73
2021/08/04 07:03:59;;;;;;;8.80;3.95;;;18.70;86.30;;;;;;5045804;28;20032;-74
2021/08/04 07:06:24;;;;;;;5.32;3.90;;;18.80;86.10;;;;;;5046647;28;20036;-74
2021/08/04 07:08:50;;;;;;;6.53;3.72;;;18.90;85.00;;;;;;5046843;28;20468;-74
2021/08/04 07:11:17;;;;;;;8.93;5.10;;;18.90;84.60;;;;;;5048410;28;20108;-74
2021/08/04 07:13:42;;;;;;;6.55;4.13;;;18.90;84.40;;;;;;5047538;28;20078;-74
2021/08/04 07:16:08;;;;;;;3.90;3.55;;;19.00;84.10;;;;;;5046928;28;20020;-74
2021/08/04 07:18:33;;;;;;;4.60;3.00;;;19.10;83.60;;;;;;5048802;28;20029;-74
2021/08/04 07:20:59;;;;;;;7.88;4.82;;;19.10;83.40;;;;;;5048559;28;20029;-74
2021/08/04 07:23:24;;;;;;;7.93;4.50;;;19.20;83.20;;;;;;5045638;28;20033;-73
2021/08/04 07:25:50;;;;;;;6.10;3.63;;;19.30;83.00;;;;;;5046207;28;20068;-72
2021/08/04 07:28:16;;;;;;;7.07;4.38;;;19.40;82.60;;;;;;5042735;28;20095;-73
2021/08/04 07:30:41;;;;;;;6.38;3.65;;;19.50;82.30;;;;;;5037779;28;20021;-73
2021/08/04 07:33:07;;;;;;;6.13;3.05;;;19.70;82.00;;;;;;5046215;28;20128;-73
2021/08/04 07:35:33;;;;;;;4.53;2.75;;;19.60;81.50;;;;;;5044734;28;20395;-73
2021/08/04 07:37:58;;;;;;;6.45;2.50;;;19.60;81.30;;;;;;5044204;28;20041;-73
2021/08/04 07:40:24;;;;;;;8.25;3.90;;;19.70;81.20;;;;;;5046190;28;20343;-73
2021/08/04 07:42:50;;;;;;;7.22;4.07;;;19.80;80.90;;;;;;5047226;28;20473;-73
2021/08/04 07:45:17;;;;;;;10.10;3.65;;;19.90;80.70;;;;;;5044852;28;20128;-73
2021/08/04 07:47:43;;;;;;;4.10;3.53;;;20.10;80.20;;;;;;5045332;28;20043;-72
2021/08/04 07:50:10;;;;;;;6.72;4.03;;;20.10;80.20;;;;;;5040165;28;20029;-74
2021/08/04 07:52:35;;;;;;;7.00;4.25;;;20.30;80.30;;;;;;5046722;28;20029;-75
2021/08/04 07:55:03;;;;;;;6.22;3.33;;;20.40;80.00;;;;;;5046902;28;20029;-74
2021/08/04 07:57:29;;;;;;;5.32;3.60;;;20.50;79.50;;;;;;5046879;28;20053;-73
2021/08/04 07:59:54;;;;;;;4.75;3.10;;;20.60;78.90;;;;;;5047723;28;20067;-73
2021/08/04 08:02:20;;;;;;;5.85;4.35;;;20.60;79.30;;;;;;5044600;28;20480;-73
2021/08/04 08:04:45;;;;;;;6.35;4.38;;;20.60;79.30;;;;;;5045085;28;20039;-74
2021/08/04 08:07:11;;;;;;;7.47;3.35;;;20.80;79.40;;;;;;5046885;28;20533;-73
2021/08/04 08:09:36;;;;;;;6.88;3.58;;;20.90;78.00;;;;;;5049175;28;20098;-74
2021/08/04 08:12:03;;;;;;;3.88;2.63;;;20.90;78.40;;;;;;5048900;28;20021;-74
2021/08/04 08:14:29;;;;;;;4.68;2.58;;;21.00;78.20;;;;;;5047918;28;20025;-73
2021/08/04 08:16:56;;;;;;;10.38;4.78;;;21.00;78.20;;;;;;5050849;28;20065;-74
2021/08/04 08:19:22;;;;;;;6.53;3.45;;;21.10;78.10;;;;;;5065945;28;20032;-74
2021/08/04 08:21:47;;;;;;;11.43;3.72;;;21.10;77.90;;;;;;5051021;28;20103;-74
2021/08/04 08:24:14;;;;;;;4.63;3.28;;;21.30;77.70;;;;;;5051979;28;20107;-74
2021/08/04 08:26:40;;;;;;;5.47;3.42;;;21.30;77.30;;;;;;5050430;28;20037;-73
2021/08/04 08:29:06;;;;;;;8.30;2.90;;;21.30;77.40;;;;;;5052782;28;20025;-74
2021/08/04 08:31:34;;;;;;;10.27;3.45;;;21.50;76.90;;;;;;5049745;28;20487;-74
2021/08/04 08:34:00;;;;;;;6.32;3.60;;;21.60;76.70;;;;;;5052906;28;20021;-74
2021/08/04 08:36:30;;;;;;;4.00;2.92;;;21.70;76.00;;;;;;5047201;28;20105;-74
2021/08/04 08:38:57;;;;;;;4.80;2.80;;;21.90;75.80;;;;;;5050192;28;20068;-73
2021/08/04 08:41:23;;;;;;;6.47;3.25;;;21.90;74.10;;;;;;5041533;28;20032;-74
2021/08/04 08:43:48;;;;;;;4.55;3.47;;;21.80;74.30;;;;;;5049742;28;20388;-73
2021/08/04 08:46:14;;;;;;;6.53;2.83;;;21.90;74.60;;;;;;5040371;28;20048;-73
2021/08/04 08:48:47;;;;;;;5.43;2.90;;;22.00;74.50;;;;;;5042387;28;20032;-73
2021/08/04 08:51:17;;;;;;;4.55;2.85;;;22.30;74.10;;;;;;5048626;28;20029;-74
2021/08/04 08:53:44;;;;;;;4.38;2.70;;;22.50;72.70;;;;;;5049576;28;20058;-73
2021/08/04 08:56:10;;;;;;;5.80;3.55;;;22.50;73.40;;;;;;5048158;28;20500;-73
2021/08/04 08:58:37;;;;;;;3.30;2.55;;;22.50;72.70;;;;;;5049330;28;20037;-73
2021/08/04 09:01:02;;;;;;;5.78;3.65;;;22.50;72.50;;;;;;5050617;28;20021;-73
2021/08/04 09:03:28;;;;;;;7.30;2.90;;;22.40;71.50;;;;;;5050563;28;20033;-73
2021/08/04 09:05:58;;;;;;;3.40;3.10;;;22.30;71.60;;;;;;5049452;28;20503;-73
2021/08/04 09:08:29;;;;;;;4.15;2.97;;;22.10;71.50;;;;;;5049071;28;20032;-74
2021/08/04 09:10:56;;;;;;;4.40;2.92;;;22.10;72.00;;;;;;5050326;28;20029;-73
2021/08/04 09:13:33;;;;;;;4.10;3.05;;;22.00;72.50;;;;;;5049755;28;20460;-73
2021/08/04 09:16:09;;;;;;;3.95;2.65;;;22.00;72.10;;;;;;5049639;28;20029;-73
2021/08/04 09:18:51;;;;;;;5.32;3.50;;;21.80;71.40;;;;;;5050575;28;20048;-74
2021/08/04 09:21:17;;;;;;;5.47;3.15;;;21.70;71.80;;;;;;5050156;28;20060;-74
2021/08/04 09:23:51;;;;;;;5.22;4.03;;;21.80;71.80;;;;;;5049985;28;20073;-73
2021/08/04 09:26:39;;;;;;;9.13;5.35;;;22.00;72.10;;;;;;5050307;28;20411;-73
2021/08/04 09:29:06;;;;;;;3.42;2.97;;;22.30;71.90;;;;;;5048802;28;20508;-73
2021/08/04 09:31:54;;;;;;;5.68;2.70;;;22.30;71.50;;;;;;5040063;28;20033;-73
2021/08/04 09:34:34;;;;;;;3.53;2.90;;;22.40;71.10;;;;;;5049139;28;20031;-73
2021/08/04 09:37:16;;;;;;;3.15;2.00;;;22.40;71.40;;;;;;5064861;28;20211;-73
2021/08/04 09:39:44;;;;;;;4.13;2.75;;;22.40;70.80;;;;;;5050418;28;20140;-73
2021/08/04 09:42:12;;;;;;;7.13;3.33;;;22.30;70.50;;;;;;5049864;28;20036;-73
2021/08/04 09:44:55;;;;;;;3.42;2.22;;;22.30;70.70;;;;;;5049326;28;20040;-73
2021/08/04 09:47:21;;;;;;;9.57;6.82;;;22.30;70.60;;;;;;5047815;28;20029;-73
2021/08/04 09:50:01;;;;;;;7.28;5.15;;;22.50;70.80;;;;;;5041805;28;20033;-74
2021/08/04 09:52:31;;;;;;;8.23;4.13;;;22.60;69.40;;;;;;5050260;28;20486;-73
2021/08/04 09:55:15;;;;;;;14.07;11.32;;;22.50;69.40;;;;;;5048951;28;20462;-74
2021/08/04 09:57:44;;;;;;;6.78;4.05;;;22.40;69.10;;;;;;5051016;28;20052;-74
2021/08/04 10:00:12;;;;;;;6.18;5.25;;;22.30;69.60;;;;;;5052215;28;20025;-73
2021/08/04 10:02:37;;;;;;;10.27;4.63;;;22.20;69.70;;;;;;5051270;28;20118;-73
2021/08/04 10:05:17;;;;;;;2.90;2.50;;;22.00;69.10;;;;;;5056053;23;20060;-76
2021/08/04 10:08:07;;;;;;;8.73;3.50;;;21.90;69.60;;;;;;5018475;28;20512;-76
2021/08/04 10:10:50;;;;;;;3.13;2.03;;;21.90;70.00;;;;;;5025910;28;20026;-76
2021/08/04 10:13:18;;;;;;;3.30;2.50;;;21.90;70.00;;;;;;5018832;28;20044;-77
2021/08/04 10:15:46;;;;;;;4.07;2.60;;;22.00;69.90;;;;;;5018199;28;20046;-76
2021/08/04 10:18:17;;;;;;;7.32;2.42;;;22.00;69.70;;;;;;5018520;28;20026;-76
2021/08/04 10:20:44;;;;;;;5.40;2.42;;;22.10;69.60;;;;;;5018726;28;20036;-76
2021/08/04 10:23:14;;;;;;;3.17;2.63;;;22.00;69.30;;;;;;5020041;28;20030;-76
2021/08/04 10:25:41;;;;;;;9.45;2.88;;;21.90;68.40;;;;;;5017873;28;20033;-76
2021/08/04 10:28:07;;;;;;;3.80;3.50;;;21.70;69.50;;;;;;5019231;28;20040;-76
2021/08/04 10:30:33;;;;;;;7.20;3.20;;;21.60;69.30;;;;;;5017754;28;20026;-76
2021/08/04 10:32:59;;;;;;;8.15;5.60;;;21.70;70.00;;;;;;5020700;28;20034;-76
2021/08/04 10:35:25;;;;;;;5.47;4.07;;;21.70;70.00;;;;;;5019116;28;20506;-77
2021/08/04 10:37:52;;;;;;;20.20;14.55;;;21.60;69.90;;;;;;5019422;28;20033;-77
2021/08/04 10:40:18;;;;;;;8.48;7.32;;;21.50;70.20;;;;;;5034638;28;20560;-77
2021/08/04 10:42:45;;;;;;;6.53;3.83;;;21.50;70.50;;;;;;5019203;28;20104;-77
2021/08/04 10:45:23;;;;;;;11.85;10.02;;;21.60;70.40;;;;;;5018666;28;20033;-76
2021/08/04 10:47:49;;;;;;;8.77;6.22;;;21.50;70.60;;;;;;5033811;28;20041;-76
2021/08/04 10:50:15;;;;;;;4.40;3.72;;;21.60;70.80;;;;;;5017971;28;20071;-76
2021/08/04 10:53:00;;;;;;;4.90;3.92;;;21.70;70.00;;;;;;5016872;28;20041;-76
2021/08/04 10:55:27;;;;;;;22.35;13.27;;;21.80;70.40;;;;;;5019133;28;20021;-76
2021/08/04 10:58:04;;;;;;;11.43;8.63;;;22.10;70.00;;;;;;5018817;28;20032;-76
2021/08/04 11:00:30;;;;;;;4.38;3.08;;;22.40;69.80;;;;;;5018237;28;20476;-76
2021/08/04 11:02:56;;;;;;;5.25;2.38;;;22.50;69.40;;;;;;5018689;28;20040;-76
2021/08/04 11:05:21;;;;;;;4.82;2.70;;;22.40;67.90;;;;;;5018316;28;20034;-76
2021/08/04 11:08:18;;;;;;;11.38;9.50;;;22.30;69.10;;;;;;5018110;28;20064;-76
2021/08/04 11:10:45;;;;;;;4.20;3.78;;;22.30;69.00;;;;;;5018783;28;20053;-76
2021/08/04 11:13:11;;;;;;;4.18;2.47;;;22.30;69.50;;;;;;5017616;28;20026;-76
2021/08/04 11:15:37;;;;;;;11.43;6.85;;;22.50;69.70;;;;;;5018017;28;20405;-77
2021/08/04 11:18:10;;;;;;;3.90;2.30;;;22.70;69.50;;;;;;5017335;28;20034;-76
2021/08/04 11:21:10;;;;;;;4.40;3.35;;;22.90;69.10;;;;;;5017960;28;20419;-76
2021/08/04 11:23:47;;;;;;;4.80;2.50;;;23.10;68.80;;;;;;5018502;28;20057;-76
2021/08/04 11:26:31;;;;;;;3.63;1.95;;;23.20;66.90;;;;;;5017882;28;20036;-76
2021/08/04 11:28:57;;;;;;;3.53;2.05;;;23.20;66.10;;;;;;5017705;28;20139;-76
2021/08/04 11:31:23;;;;;;;4.90;2.15;;;23.00;66.70;;;;;;5018236;28;20072;-76
2021/08/04 11:33:49;;;;;;;2.97;2.10;;;23.00;65.00;;;;;;5017853;28;20025;-76
2021/08/04 11:36:21;;;;;;;3.72;1.52;;;22.80;65.10;;;;;;5018649;28;20065;-76
2021/08/04 11:38:52;;;;;;;4.50;2.53;;;22.90;65.80;;;;;;5016861;28;20025;-76
2021/08/04 11:41:32;;;;;;;5.05;4.55;;;23.00;65.80;;;;;;5017995;28;20084;-76
2021/08/04 11:44:08;;;;;;;3.22;2.65;;;23.30;65.40;;;;;;5015704;28;20036;-76
2021/08/04 11:46:35;;;;;;;12.35;8.30;;;23.50;64.00;;;;;;5016851;28;20109;-76
2021/08/04 11:49:07;;;;;;;5.03;4.38;;;23.40;63.60;;;;;;5017601;28;20432;-76
2021/08/04 11:51:39;;;;;;;9.45;7.47;;;23.40;64.10;;;;;;5026392;28;20025;-76
2021/08/04 11:54:06;;;;;;;8.90;5.25;;;23.40;63.30;;;;;;5021428;28;20037;-76
2021/08/04 11:56:33;;;;;;;9.07;5.88;;;23.30;64.30;;;;;;5021090;28;20060;-76
2021/08/04 11:59:01;;;;;;;5.43;3.17;;;23.40;64.50;;;;;;5021189;28;20036;-76
2021/08/04 12:01:27;;;;;;;3.67;3.28;;;23.60;64.60;;;;;;5021995;28;20022;-76
2021/08/04 12:04:09;;;;;;;9.80;5.82;;;23.70;64.30;;;;;;5021061;28;20045;-76
2021/08/04 12:06:37;;;;;;;4.88;4.32;;;24.10;64.70;;;;;;5020852;28;20513;-77
2021/08/04 12:09:26;;;;;;;6.88;4.97;;;24.50;64.10;;;;;;5020630;28;20030;-77
2021/08/04 12:11:52;;;;;;;13.15;8.73;;;24.90;63.80;;;;;;5037068;28;20488;-77
2021/08/04 12:14:19;;;;;;;5.10;4.53;;;25.00;62.60;;;;;;5021024;28;20038;-77
2021/08/04 12:16:48;;;;;;;4.20;3.50;;;25.20;60.70;;;;;;5021778;28;20429;-77
2021/08/04 12:19:35;;;;;;;3.95;2.53;;;25.10;61.20;;;;;;5021874;28;20178;-77
2021/08/04 12:22:02;;;;;;;2.85;2.55;;;25.00;61.40;;;;;;5020026;28;20384;-77
2021/08/04 12:24:28;;;;;;;5.90;3.50;;;24.90;61.30;;;;;;5020217;28;20101;-76
2021/08/04 12:26:54;;;;;;;5.75;2.72;;;25.20;61.20;;;;;;5028025;28;20032;-77
2021/08/04 12:29:27;;;;;;;2.60;2.08;;;25.30;61.50;;;;;;5021095;28;20030;-77
2021/08/04 12:32:08;;;;;;;7.65;5.72;;;25.40;58.60;;;;;;5021237;28;20664;-77
2021/08/04 12:34:42;;;;;;;2.30;1.95;;;25.20;56.70;;;;;;5027697;28;20029;-76
2021/08/04 12:37:10;;;;;;;2.65;2.03;;;24.80;58.00;;;;;;5021675;28;20499;-76
2021/08/04 12:39:37;;;;;;;4.72;3.17;;;24.80;58.70;;;;;;5020705;28;20080;-77
2021/08/04 12:42:03;;;;;;;3.95;3.45;;;24.90;58.60;;;;;;5021615;28;20053;-76
2021/08/04 12:44:28;;;;;;;9.98;8.02;;;25.10;59.30;;;;;;5021126;28;20500;-76
2021/08/04 12:46:54;;;;;;;5.65;3.45;;;25.20;58.80;;;;;;5021128;28;20026;-76
2021/08/04 12:49:26;;;;;;;1.95;1.45;;;25.10;57.10;;;;;;5035566;28;20432;-77
2021/08/04 12:51:58;;;;;;;9.10;7.32;;;24.70;56.70;;;;;;5019349;28;20449;-76